RJBBRJOM

Guest
Details From RJBB - KANSAI INTL
To RJOM - MATSUYAMA
Flight Number -
Tags generated
Created
Modified
Stats Distance 131 nm / 243 km
Max Altitude 5,700 ft / 1,737 m
Waypoints 3
Social Downloads 0
Likes 0
Share VATSIM

Download

Looking for another format? Having issues loading an existing format? Contact us
Advertisement - Login to hide

Notes

Basic altitude profile: - Ascent Rate: 2500ft/min - Ascent Speed: 250kts - Cruise Altitude: 35000ft - Cruise Speed: 420kts - Descent Rate: 1500ft/min - Descent Speed: 250kts Options: - Use NATs: yes - Use PACOTS: yes - Use low airways: yes - Use high airways: yes

Route

RJBB MALTA RJOM

ID Type Via Altitude Latitude Longitude Leg Dist Tot Dist Heading (true) Name
O RJBB APT - 0 ft / 0 m 34.43362˚ 135.23360˚ - 0 nm - KANSAI INTL
MALTA FIX - 5,700 ft / 1,737 m 33.96440˚ 133.21551˚ 104 nm 104 nm 255° / 254° -
O RJOM APT - 0 ft / 0 m 33.82726˚ 132.69963˚ 27 nm 131 nm 252° / 252° MATSUYAMA

Altitude Profile

Advertisement - Login to hide

RJBB

Details ICAO RJBB (KIX)
Name KANSAI INTL
Region Japan
Timezone Asia/Tokyo (UTC+9.0)
Stats Elevation 26 ft / 8 m (AMSL)
Location 34.433619° 135.233598°
Runways 2
Magnetic Variation 7.581° W

METAR

RJBB 152100Z 28006KT 9999 FEW025 SCT035 BKN100 09/03 Q1019 NOSIG

Decode

TAF

TAF RJBB 151706Z 1518/1700 20006KT 9999 FEW030 BKN050 BECMG 1522/1600 29010KT BECMG 1604/1606 29020KT TEMPO 1606/1615 30026G36KT

Decode

Departure Runways

ID Width Length Bearing (true) Bearing (mag) Surface Threshold Offset Overrun Length
06L 200 ft / 61 m 13,121 ft / 3,999 m 50.86° 58.44° Asphalt 0 ft / 0 m 200 ft / 61 m
06R 200 ft / 61 m 11,481 ft / 3,499 m 50.86° 58.44° Asphalt 0 ft / 0 m 200 ft / 61 m
24L 200 ft / 61 m 11,481 ft / 3,499 m 230.88° 238.46° Asphalt 0 ft / 0 m 200 ft / 61 m
24R 200 ft / 61 m 13,121 ft / 3,999 m 230.88° 238.46° Asphalt 0 ft / 0 m 200 ft / 61 m

RJOM

Details ICAO RJOM (MYJ)
Name MATSUYAMA
Region Japan
Timezone Asia/Tokyo (UTC+9.0)
Stats Elevation 25 ft / 8 m (AMSL)
Location 33.827257° 132.699631°
Runways 1
Magnetic Variation 7.514° W

METAR

RJOM 152110Z 29009KT 9999 FEW020 SCT045 BKN080 11/M01 Q1019 RMK 1CU020 4SC045 6AC080 A3011

Decode

TAF

TAF RJOM 151706Z 1518/1700 12007KT 9999 FEW020 BKN050 BECMG 1519/1521 28013KT TEMPO 1618/1621 3000 -SHSN

Decode

Destination Runways

ID Width Length Bearing (true) Bearing (mag) Surface Threshold Offset Overrun Length
14 150 ft / 46 m 8,203 ft / 2,500 m 130.67° 138.18° Asphalt 0 ft / 0 m 206 ft / 63 m
32 150 ft / 46 m 8,203 ft / 2,500 m 310.68° 318.19° Asphalt 0 ft / 0 m 195 ft / 59 m

Popular Alternatives